sensor_id;sensor_type;location;lat;lon;timestamp;temperature;humidity
7708;DHT22;3896;48.758;8.888;2023-02-15T00:00:42;0.90;81.20
7708;DHT22;3896;48.758;8.888;2023-02-15T00:03:08;0.80;81.20
7708;DHT22;3896;48.758;8.888;2023-02-15T00:05:33;0.80;81.60
7708;DHT22;3896;48.758;8.888;2023-02-15T00:07:59;0.80;82.00
7708;DHT22;3896;48.758;8.888;2023-02-15T00:10:24;0.70;82.30
7708;DHT22;3896;48.758;8.888;2023-02-15T00:12:50;0.70;82.50
7708;DHT22;3896;48.758;8.888;2023-02-15T00:15:15;0.70;82.90
7708;DHT22;3896;48.758;8.888;2023-02-15T00:17:41;0.70;82.70
7708;DHT22;3896;48.758;8.888;2023-02-15T00:20:07;0.60;82.60
7708;DHT22;3896;48.758;8.888;2023-02-15T00:22:33;0.60;82.70
7708;DHT22;3896;48.758;8.888;2023-02-15T00:24:58;0.60;82.50
7708;DHT22;3896;48.758;8.888;2023-02-15T00:27:24;0.60;82.50
7708;DHT22;3896;48.758;8.888;2023-02-15T00:29:49;0.50;82.70
7708;DHT22;3896;48.758;8.888;2023-02-15T00:32:15;0.50;82.50
7708;DHT22;3896;48.758;8.888;2023-02-15T00:34:40;0.50;82.50
7708;DHT22;3896;48.758;8.888;2023-02-15T00:37:06;0.50;82.70
7708;DHT22;3896;48.758;8.888;2023-02-15T00:39:31;0.40;83.40
7708;DHT22;3896;48.758;8.888;2023-02-15T00:41:57;0.40;84.00
7708;DHT22;3896;48.758;8.888;2023-02-15T00:44:22;0.40;84.00
7708;DHT22;3896;48.758;8.888;2023-02-15T00:46:48;0.40;84.20
7708;DHT22;3896;48.758;8.888;2023-02-15T00:49:13;0.30;84.20
7708;DHT22;3896;48.758;8.888;2023-02-15T00:51:39;0.30;84.40
7708;DHT22;3896;48.758;8.888;2023-02-15T00:54:05;0.30;84.20
7708;DHT22;3896;48.758;8.888;2023-02-15T00:56:30;0.30;85.00
7708;DHT22;3896;48.758;8.888;2023-02-15T00:58:56;0.20;84.90
7708;DHT22;3896;48.758;8.888;2023-02-15T01:01:22;0.20;85.70
7708;DHT22;3896;48.758;8.888;2023-02-15T01:03:48;0.20;85.60
7708;DHT22;3896;48.758;8.888;2023-02-15T01:06:15;0.20;85.60
7708;DHT22;3896;48.758;8.888;2023-02-15T01:08:41;0.20;86.00
7708;DHT22;3896;48.758;8.888;2023-02-15T01:11:10;0.10;86.10
7708;DHT22;3896;48.758;8.888;2023-02-15T01:13:37;0.10;86.30
7708;DHT22;3896;48.758;8.888;2023-02-15T01:16:03;0.10;86.50
7708;DHT22;3896;48.758;8.888;2023-02-15T01:18:29;0.00;86.70
7708;DHT22;3896;48.758;8.888;2023-02-15T01:20:55;0.00;86.70
7708;DHT22;3896;48.758;8.888;2023-02-15T01:23:20;0.00;86.70
7708;DHT22;3896;48.758;8.888;2023-02-15T01:25:46;-0.10;86.60
7708;DHT22;3896;48.758;8.888;2023-02-15T01:28:12;-0.10;86.80
7708;DHT22;3896;48.758;8.888;2023-02-15T01:30:37;-0.10;87.30
7708;DHT22;3896;48.758;8.888;2023-02-15T01:33:03;-0.20;87.80
7708;DHT22;3896;48.758;8.888;2023-02-15T01:35:28;-0.20;88.00
7708;DHT22;3896;48.758;8.888;2023-02-15T01:37:55;-0.20;87.50
7708;DHT22;3896;48.758;8.888;2023-02-15T01:40:22;-0.20;87.30
7708;DHT22;3896;48.758;8.888;2023-02-15T01:42:51;-0.20;87.60
7708;DHT22;3896;48.758;8.888;2023-02-15T01:45:24;-0.20;87.90
7708;DHT22;3896;48.758;8.888;2023-02-15T01:48:35;-0.30;88.50
7708;DHT22;3896;48.758;8.888;2023-02-15T01:51:00;-0.30;88.00
7708;DHT22;3896;48.758;8.888;2023-02-15T01:53:43;-0.40;87.30
7708;DHT22;3896;48.758;8.888;2023-02-15T01:56:15;-0.40;87.30
7708;DHT22;3896;48.758;8.888;2023-02-15T01:58:42;-0.40;87.40
7708;DHT22;3896;48.758;8.888;2023-02-15T02:01:09;-0.40;87.20
7708;DHT22;3896;48.758;8.888;2023-02-15T02:06:19;-0.50;87.60
7708;DHT22;3896;48.758;8.888;2023-02-15T02:08:46;-0.50;89.30
7708;DHT22;3896;48.758;8.888;2023-02-15T02:11:13;-0.60;89.10
7708;DHT22;3896;48.758;8.888;2023-02-15T02:13:40;-0.60;89.30
7708;DHT22;3896;48.758;8.888;2023-02-15T02:16:16;-0.60;89.60
7708;DHT22;3896;48.758;8.888;2023-02-15T02:24:36;-0.70;89.20
7708;DHT22;3896;48.758;8.888;2023-02-15T02:27:26;-0.70;89.20
7708;DHT22;3896;48.758;8.888;2023-02-15T02:33:17;-0.80;89.90
7708;DHT22;3896;48.758;8.888;2023-02-15T02:35:57;-0.80;90.10
7708;DHT22;3896;48.758;8.888;2023-02-15T02:44:02;-0.80;90.80
7708;DHT22;3896;48.758;8.888;2023-02-15T02:46:43;-0.90;90.90
7708;DHT22;3896;48.758;8.888;2023-02-15T02:49:09;-0.90;91.10
7708;DHT22;3896;48.758;8.888;2023-02-15T02:51:35;-0.90;91.10
7708;DHT22;3896;48.758;8.888;2023-02-15T02:54:05;-0.90;91.70
7708;DHT22;3896;48.758;8.888;2023-02-15T02:56:38;-0.90;91.40
7708;DHT22;3896;48.758;8.888;2023-02-15T02:59:33;-1.00;91.30
7708;DHT22;3896;48.758;8.888;2023-02-15T03:02:09;-1.00;91.10
7708;DHT22;3896;48.758;8.888;2023-02-15T03:04:47;-1.00;91.20
7708;DHT22;3896;48.758;8.888;2023-02-15T03:07:17;-1.00;90.80
7708;DHT22;3896;48.758;8.888;2023-02-15T03:09:50;-1.00;90.60
7708;DHT22;3896;48.758;8.888;2023-02-15T03:12:22;-1.00;91.00
7708;DHT22;3896;48.758;8.888;2023-02-15T03:14:51;-1.10;91.40
7708;DHT22;3896;48.758;8.888;2023-02-15T03:17:20;-1.10;91.50
7708;DHT22;3896;48.758;8.888;2023-02-15T03:19:48;-1.10;91.40
7708;DHT22;3896;48.758;8.888;2023-02-15T03:22:18;-1.10;91.20
7708;DHT22;3896;48.758;8.888;2023-02-15T03:25:04;-1.20;90.80
7708;DHT22;3896;48.758;8.888;2023-02-15T03:27:35;-1.20;90.80
7708;DHT22;3896;48.758;8.888;2023-02-15T03:30:04;-1.20;91.30
7708;DHT22;3896;48.758;8.888;2023-02-15T03:32:32;-1.20;91.50
7708;DHT22;3896;48.758;8.888;2023-02-15T03:34:59;-1.30;91.70
7708;DHT22;3896;48.758;8.888;2023-02-15T03:37:36;-1.30;91.80
7708;DHT22;3896;48.758;8.888;2023-02-15T03:40:11;-1.30;91.30
7708;DHT22;3896;48.758;8.888;2023-02-15T03:43:11;-1.30;91.40
7708;DHT22;3896;48.758;8.888;2023-02-15T03:45:38;-1.40;91.20
7708;DHT22;3896;48.758;8.888;2023-02-15T03:48:30;-1.40;91.00
7708;DHT22;3896;48.758;8.888;2023-02-15T03:51:00;-1.40;90.90
7708;DHT22;3896;48.758;8.888;2023-02-15T03:53:48;-1.50;90.70
7708;DHT22;3896;48.758;8.888;2023-02-15T03:56:14;-1.50;90.10
7708;DHT22;3896;48.758;8.888;2023-02-15T03:58:39;-1.50;90.30
7708;DHT22;3896;48.758;8.888;2023-02-15T04:04:37;-1.60;90.80
7708;DHT22;3896;48.758;8.888;2023-02-15T04:07:05;-1.60;90.70
7708;DHT22;3896;48.758;8.888;2023-02-15T04:09:31;-1.60;90.90
7708;DHT22;3896;48.758;8.888;2023-02-15T04:12:15;-1.60;91.00
7708;DHT22;3896;48.758;8.888;2023-02-15T04:14:40;-1.60;91.20
7708;DHT22;3896;48.758;8.888;2023-02-15T04:17:25;-1.70;91.30
7708;DHT22;3896;48.758;8.888;2023-02-15T04:19:50;-1.70;90.90
7708;DHT22;3896;48.758;8.888;2023-02-15T04:22:34;-1.70;91.20
7708;DHT22;3896;48.758;8.888;2023-02-15T04:25:18;-1.70;91.20
7708;DHT22;3896;48.758;8.888;2023-02-15T04:27:48;-1.70;91.10
7708;DHT22;3896;48.758;8.888;2023-02-15T04:30:14;-1.80;91.10
7708;DHT22;3896;48.758;8.888;2023-02-15T04:32:41;-1.80;91.60
7708;DHT22;3896;48.758;8.888;2023-02-15T04:35:07;-1.80;92.10
7708;DHT22;3896;48.758;8.888;2023-02-15T04:37:33;-1.80;92.60
7708;DHT22;3896;48.758;8.888;2023-02-15T04:39:59;-1.80;92.90
7708;DHT22;3896;48.758;8.888;2023-02-15T04:42:25;-1.80;92.90
7708;DHT22;3896;48.758;8.888;2023-02-15T04:44:51;-1.80;93.00
7708;DHT22;3896;48.758;8.888;2023-02-15T04:47:17;-1.80;93.40
7708;DHT22;3896;48.758;8.888;2023-02-15T04:49:43;-1.80;92.80
7708;DHT22;3896;48.758;8.888;2023-02-15T04:52:08;-1.80;92.50
7708;DHT22;3896;48.758;8.888;2023-02-15T04:54:34;-1.90;92.80
7708;DHT22;3896;48.758;8.888;2023-02-15T04:56:59;-1.90;93.30
7708;DHT22;3896;48.758;8.888;2023-02-15T04:59:25;-1.90;93.70
7708;DHT22;3896;48.758;8.888;2023-02-15T05:01:50;-1.90;93.70
7708;DHT22;3896;48.758;8.888;2023-02-15T05:04:16;-1.90;93.70
7708;DHT22;3896;48.758;8.888;2023-02-15T05:06:42;-1.90;93.40
7708;DHT22;3896;48.758;8.888;2023-02-15T05:09:07;-1.90;93.80
7708;DHT22;3896;48.758;8.888;2023-02-15T05:11:33;-2.00;93.70
7708;DHT22;3896;48.758;8.888;2023-02-15T05:13:58;-2.00;93.90
7708;DHT22;3896;48.758;8.888;2023-02-15T05:16:24;-2.00;93.80
7708;DHT22;3896;48.758;8.888;2023-02-15T05:18:50;-2.00;93.70
7708;DHT22;3896;48.758;8.888;2023-02-15T05:21:16;-2.00;93.50
7708;DHT22;3896;48.758;8.888;2023-02-15T05:23:42;-2.00;93.70
7708;DHT22;3896;48.758;8.888;2023-02-15T05:26:11;-2.00;93.70
7708;DHT22;3896;48.758;8.888;2023-02-15T05:28:55;-2.00;93.70
7708;DHT22;3896;48.758;8.888;2023-02-15T05:31:21;-2.10;93.80
7708;DHT22;3896;48.758;8.888;2023-02-15T05:33:47;-2.10;94.00
7708;DHT22;3896;48.758;8.888;2023-02-15T05:36:13;-2.10;94.00
7708;DHT22;3896;48.758;8.888;2023-02-15T05:38:39;-2.10;94.10
7708;DHT22;3896;48.758;8.888;2023-02-15T05:41:05;-2.10;94.30
7708;DHT22;3896;48.758;8.888;2023-02-15T05:43:31;-2.10;94.50
7708;DHT22;3896;48.758;8.888;2023-02-15T05:45:57;-2.10;94.90
7708;DHT22;3896;48.758;8.888;2023-02-15T05:48:24;-2.10;94.90
7708;DHT22;3896;48.758;8.888;2023-02-15T05:51:07;-2.10;94.60
7708;DHT22;3896;48.758;8.888;2023-02-15T05:53:35;-2.20;94.50
7708;DHT22;3896;48.758;8.888;2023-02-15T05:56:01;-2.20;94.60
7708;DHT22;3896;48.758;8.888;2023-02-15T05:58:36;-2.20;95.00
7708;DHT22;3896;48.758;8.888;2023-02-15T06:03:38;-2.20;95.10
7708;DHT22;3896;48.758;8.888;2023-02-15T06:06:04;-2.20;95.40
7708;DHT22;3896;48.758;8.888;2023-02-15T06:08:31;-2.20;95.50
7708;DHT22;3896;48.758;8.888;2023-02-15T06:10:57;-2.30;95.60
7708;DHT22;3896;48.758;8.888;2023-02-15T06:13:22;-2.30;95.30
7708;DHT22;3896;48.758;8.888;2023-02-15T06:15:48;-2.30;95.20
7708;DHT22;3896;48.758;8.888;2023-02-15T06:18:14;-2.30;95.30
7708;DHT22;3896;48.758;8.888;2023-02-15T06:20:39;-2.30;95.50
7708;DHT22;3896;48.758;8.888;2023-02-15T06:23:05;-2.30;95.60
7708;DHT22;3896;48.758;8.888;2023-02-15T06:25:30;-2.30;95.40
7708;DHT22;3896;48.758;8.888;2023-02-15T06:27:56;-2.40;94.90
7708;DHT22;3896;48.758;8.888;2023-02-15T06:30:21;-2.40;94.40
7708;DHT22;3896;48.758;8.888;2023-02-15T06:32:47;-2.30;94.50
7708;DHT22;3896;48.758;8.888;2023-02-15T06:35:13;-2.40;94.40
7708;DHT22;3896;48.758;8.888;2023-02-15T06:37:38;-2.40;94.70
7708;DHT22;3896;48.758;8.888;2023-02-15T06:40:05;-2.40;94.90
7708;DHT22;3896;48.758;8.888;2023-02-15T06:42:31;-2.40;95.10
7708;DHT22;3896;48.758;8.888;2023-02-15T06:44:57;-2.40;95.20
7708;DHT22;3896;48.758;8.888;2023-02-15T06:47:24;-2.50;95.30
7708;DHT22;3896;48.758;8.888;2023-02-15T06:49:51;-2.50;95.40
7708;DHT22;3896;48.758;8.888;2023-02-15T06:52:16;-2.50;95.60
7708;DHT22;3896;48.758;8.888;2023-02-15T06:54:42;-2.50;95.60
7708;DHT22;3896;48.758;8.888;2023-02-15T06:57:07;-2.50;95.40
7708;DHT22;3896;48.758;8.888;2023-02-15T06:59:34;-2.50;95.30
7708;DHT22;3896;48.758;8.888;2023-02-15T07:02:00;-2.50;95.30
7708;DHT22;3896;48.758;8.888;2023-02-15T07:04:25;-2.50;95.10
7708;DHT22;3896;48.758;8.888;2023-02-15T07:06:53;-2.50;95.00
7708;DHT22;3896;48.758;8.888;2023-02-15T07:09:19;-2.50;95.20
7708;DHT22;3896;48.758;8.888;2023-02-15T07:11:45;-2.50;94.90
7708;DHT22;3896;48.758;8.888;2023-02-15T07:14:29;-2.50;94.70
7708;DHT22;3896;48.758;8.888;2023-02-15T07:16:54;-2.60;95.00
7708;DHT22;3896;48.758;8.888;2023-02-15T07:19:20;-2.50;94.90
7708;DHT22;3896;48.758;8.888;2023-02-15T07:21:45;-2.50;95.00
7708;DHT22;3896;48.758;8.888;2023-02-15T07:24:11;-2.50;95.10
7708;DHT22;3896;48.758;8.888;2023-02-15T07:26:36;-2.50;95.30
7708;DHT22;3896;48.758;8.888;2023-02-15T07:29:02;-2.50;95.40
7708;DHT22;3896;48.758;8.888;2023-02-15T07:31:28;-2.50;95.70
7708;DHT22;3896;48.758;8.888;2023-02-15T07:33:53;-2.50;96.10
7708;DHT22;3896;48.758;8.888;2023-02-15T07:36:19;-2.40;96.40
7708;DHT22;3896;48.758;8.888;2023-02-15T07:38:45;-2.40;96.60
7708;DHT22;3896;48.758;8.888;2023-02-15T07:41:13;-2.40;96.80
7708;DHT22;3896;48.758;8.888;2023-02-15T07:43:41;-2.40;96.90
7708;DHT22;3896;48.758;8.888;2023-02-15T07:46:11;-2.30;97.40
7708;DHT22;3896;48.758;8.888;2023-02-15T07:48:38;-2.30;98.10
7708;DHT22;3896;48.758;8.888;2023-02-15T07:51:05;-2.30;98.60
7708;DHT22;3896;48.758;8.888;2023-02-15T07:53:32;-2.20;98.70
7708;DHT22;3896;48.758;8.888;2023-02-15T07:56:02;-2.10;99.20
7708;DHT22;3896;48.758;8.888;2023-02-15T07:58:28;-2.10;99.60
7708;DHT22;3896;48.758;8.888;2023-02-15T08:01:14;-2.00;99.70
7708;DHT22;3896;48.758;8.888;2023-02-15T08:03:41;-1.90;99.80
7708;DHT22;3896;48.758;8.888;2023-02-15T08:06:07;-1.90;99.90
7708;DHT22;3896;48.758;8.888;2023-02-15T08:08:35;-1.80;99.90
7708;DHT22;3896;48.758;8.888;2023-02-15T08:11:03;-1.70;99.90
7708;DHT22;3896;48.758;8.888;2023-02-15T08:13:50;-1.60;99.90
7708;DHT22;3896;48.758;8.888;2023-02-15T08:16:21;-1.50;99.90
7708;DHT22;3896;48.758;8.888;2023-02-15T08:18:46;-1.40;99.90
7708;DHT22;3896;48.758;8.888;2023-02-15T08:21:13;-1.30;99.90
7708;DHT22;3896;48.758;8.888;2023-02-15T08:23:38;-1.30;99.90
7708;DHT22;3896;48.758;8.888;2023-02-15T08:26:04;-1.20;99.90
7708;DHT22;3896;48.758;8.888;2023-02-15T08:28:30;-1.00;99.90
7708;DHT22;3896;48.758;8.888;2023-02-15T08:31:10;-0.90;99.90
7708;DHT22;3896;48.758;8.888;2023-02-15T08:33:37;-0.80;99.90
7708;DHT22;3896;48.758;8.888;2023-02-15T08:36:09;-0.70;99.90
7708;DHT22;3896;48.758;8.888;2023-02-15T08:38:35;-0.60;99.90
7708;DHT22;3896;48.758;8.888;2023-02-15T08:41:25;-0.50;99.90
7708;DHT22;3896;48.758;8.888;2023-02-15T08:43:55;-0.40;99.90
7708;DHT22;3896;48.758;8.888;2023-02-15T08:46:23;-0.20;99.90
7708;DHT22;3896;48.758;8.888;2023-02-15T08:48:49;-0.10;99.90
7708;DHT22;3896;48.758;8.888;2023-02-15T08:51:18;0.00;99.90
7708;DHT22;3896;48.758;8.888;2023-02-15T08:53:49;0.20;99.90
7708;DHT22;3896;48.758;8.888;2023-02-15T08:56:16;0.30;99.90
7708;DHT22;3896;48.758;8.888;2023-02-15T08:58:42;0.50;99.90
7708;DHT22;3896;48.758;8.888;2023-02-15T09:01:20;0.60;99.90
7708;DHT22;3896;48.758;8.888;2023-02-15T09:03:47;0.80;99.90
7708;DHT22;3896;48.758;8.888;2023-02-15T09:06:14;1.00;99.90
7708;DHT22;3896;48.758;8.888;2023-02-15T09:08:39;1.10;99.90
7708;DHT22;3896;48.758;8.888;2023-02-15T09:11:10;1.30;99.90
7708;DHT22;3896;48.758;8.888;2023-02-15T09:13:36;1.40;99.90
7708;DHT22;3896;48.758;8.888;2023-02-15T09:16:04;1.60;99.90
7708;DHT22;3896;48.758;8.888;2023-02-15T09:18:32;1.80;99.90
7708;DHT22;3896;48.758;8.888;2023-02-15T09:21:08;2.00;99.90
7708;DHT22;3896;48.758;8.888;2023-02-15T09:23:35;2.20;99.90
7708;DHT22;3896;48.758;8.888;2023-02-15T09:26:05;2.40;99.90
7708;DHT22;3896;48.758;8.888;2023-02-15T09:28:31;2.60;99.90
7708;DHT22;3896;48.758;8.888;2023-02-15T09:31:07;2.80;99.90
7708;DHT22;3896;48.758;8.888;2023-02-15T09:33:35;3.00;99.90
7708;DHT22;3896;48.758;8.888;2023-02-15T09:36:02;3.30;99.90
7708;DHT22;3896;48.758;8.888;2023-02-15T09:38:30;3.50;99.90
7708;DHT22;3896;48.758;8.888;2023-02-15T09:49:38;4.30;99.90
7708;DHT22;3896;48.758;8.888;2023-02-15T09:52:27;4.50;99.90
7708;DHT22;3896;48.758;8.888;2023-02-15T10:03:15;5.40;99.90
7708;DHT22;3896;48.758;8.888;2023-02-15T10:08:47;5.80;99.90
7708;DHT22;3896;48.758;8.888;2023-02-15T10:11:19;6.00;99.90
7708;DHT22;3896;48.758;8.888;2023-02-15T10:22:28;6.90;99.90
7708;DHT22;3896;48.758;8.888;2023-02-15T10:27:43;7.30;98.70
7708;DHT22;3896;48.758;8.888;2023-02-15T10:30:31;7.50;97.70
7708;DHT22;3896;48.758;8.888;2023-02-15T10:33:02;7.80;96.80
7708;DHT22;3896;48.758;8.888;2023-02-15T10:35:43;8.00;95.70
7708;DHT22;3896;48.758;8.888;2023-02-15T10:38:25;8.20;94.60
7708;DHT22;3896;48.758;8.888;2023-02-15T10:44:04;8.60;92.70
7708;DHT22;3896;48.758;8.888;2023-02-15T10:49:14;9.00;90.90
7708;DHT22;3896;48.758;8.888;2023-02-15T10:54:36;9.40;87.90
7708;DHT22;3896;48.758;8.888;2023-02-15T11:06:07;10.40;80.20
7708;DHT22;3896;48.758;8.888;2023-02-15T11:08:41;10.60;78.90
7708;DHT22;3896;48.758;8.888;2023-02-15T11:11:12;10.80;77.10
7708;DHT22;3896;48.758;8.888;2023-02-15T11:13:46;11.10;75.90
7708;DHT22;3896;48.758;8.888;2023-02-15T11:18:54;11.50;73.00
7708;DHT22;3896;48.758;8.888;2023-02-15T11:21:30;11.70;72.00
7708;DHT22;3896;48.758;8.888;2023-02-15T11:24:12;11.90;70.30
7708;DHT22;3896;48.758;8.888;2023-02-15T11:26:46;12.10;68.60
7708;DHT22;3896;48.758;8.888;2023-02-15T11:29:37;12.30;67.50
7708;DHT22;3896;48.758;8.888;2023-02-15T11:32:20;12.40;66.50
7708;DHT22;3896;48.758;8.888;2023-02-15T11:35:04;12.60;66.40
7708;DHT22;3896;48.758;8.888;2023-02-15T11:40:32;13.00;64.50
7708;DHT22;3896;48.758;8.888;2023-02-15T11:43:03;13.20;62.60
7708;DHT22;3896;48.758;8.888;2023-02-15T11:45:32;13.40;62.10
7708;DHT22;3896;48.758;8.888;2023-02-15T11:48:00;13.60;61.60
7708;DHT22;3896;48.758;8.888;2023-02-15T11:50:28;13.70;60.80
7708;DHT22;3896;48.758;8.888;2023-02-15T11:53:19;13.90;59.70
7708;DHT22;3896;48.758;8.888;2023-02-15T11:55:48;14.00;59.10
7708;DHT22;3896;48.758;8.888;2023-02-15T11:58:36;14.20;57.50
7708;DHT22;3896;48.758;8.888;2023-02-15T12:01:23;14.40;57.30
7708;DHT22;3896;48.758;8.888;2023-02-15T12:03:57;14.50;56.90
7708;DHT22;3896;48.758;8.888;2023-02-15T12:06:27;14.70;56.80
7708;DHT22;3896;48.758;8.888;2023-02-15T12:11:39;15.00;56.40
7708;DHT22;3896;48.758;8.888;2023-02-15T12:14:08;15.20;55.70
7708;DHT22;3896;48.758;8.888;2023-02-15T12:19:38;15.50;54.70
7708;DHT22;3896;48.758;8.888;2023-02-15T12:22:06;15.70;55.00
7708;DHT22;3896;48.758;8.888;2023-02-15T12:24:46;15.90;54.40
7708;DHT22;3896;48.758;8.888;2023-02-15T12:27:16;16.10;54.20
7708;DHT22;3896;48.758;8.888;2023-02-15T12:30:04;16.30;54.10
7708;DHT22;3896;48.758;8.888;2023-02-15T12:32:35;16.60;53.90
7708;DHT22;3896;48.758;8.888;2023-02-15T12:35:14;16.80;52.80
7708;DHT22;3896;48.758;8.888;2023-02-15T12:37:56;17.00;52.40
7708;DHT22;3896;48.758;8.888;2023-02-15T12:40:30;17.30;52.00
7708;DHT22;3896;48.758;8.888;2023-02-15T12:42:56;17.40;51.30
7708;DHT22;3896;48.758;8.888;2023-02-15T12:45:31;17.60;50.90
7708;DHT22;3896;48.758;8.888;2023-02-15T12:50:45;17.90;51.30
7708;DHT22;3896;48.758;8.888;2023-02-15T12:56:01;18.30;50.80
7708;DHT22;3896;48.758;8.888;2023-02-15T12:58:30;18.40;51.00
7708;DHT22;3896;48.758;8.888;2023-02-15T13:01:15;18.60;50.60
7708;DHT22;3896;48.758;8.888;2023-02-15T13:04:01;18.80;50.10
7708;DHT22;3896;48.758;8.888;2023-02-15T13:06:31;19.00;49.30
7708;DHT22;3896;48.758;8.888;2023-02-15T13:09:05;19.20;48.10
7708;DHT22;3896;48.758;8.888;2023-02-15T13:11:31;19.30;47.80
7708;DHT22;3896;48.758;8.888;2023-02-15T13:14:02;19.50;47.40
7708;DHT22;3896;48.758;8.888;2023-02-15T13:16:38;19.60;47.20
7708;DHT22;3896;48.758;8.888;2023-02-15T13:19:09;19.70;46.90
7708;DHT22;3896;48.758;8.888;2023-02-15T13:21:40;19.90;46.70
7708;DHT22;3896;48.758;8.888;2023-02-15T13:24:37;20.00;46.40
7708;DHT22;3896;48.758;8.888;2023-02-15T13:27:04;20.10;46.40
7708;DHT22;3896;48.758;8.888;2023-02-15T13:29:34;20.30;46.00
7708;DHT22;3896;48.758;8.888;2023-02-15T13:32:10;20.50;45.90
7708;DHT22;3896;48.758;8.888;2023-02-15T13:34:38;20.70;45.80
7708;DHT22;3896;48.758;8.888;2023-02-15T13:39:58;20.90;44.80
7708;DHT22;3896;48.758;8.888;2023-02-15T13:42:40;21.10;44.50
7708;DHT22;3896;48.758;8.888;2023-02-15T13:48:34;21.30;43.00
7708;DHT22;3896;48.758;8.888;2023-02-15T13:53:59;21.60;42.60
7708;DHT22;3896;48.758;8.888;2023-02-15T13:59:54;21.90;41.60
7708;DHT22;3896;48.758;8.888;2023-02-15T14:05:39;22.20;40.90
7708;DHT22;3896;48.758;8.888;2023-02-15T14:08:35;22.30;40.70
7708;DHT22;3896;48.758;8.888;2023-02-15T14:16:27;22.60;39.90
7708;DHT22;3896;48.758;8.888;2023-02-15T14:22:00;22.80;39.20
7708;DHT22;3896;48.758;8.888;2023-02-15T14:27:26;22.90;38.50
7708;DHT22;3896;48.758;8.888;2023-02-15T14:30:00;23.00;38.70
7708;DHT22;3896;48.758;8.888;2023-02-15T14:32:44;23.10;38.20
7708;DHT22;3896;48.758;8.888;2023-02-15T14:35:22;23.20;38.10
7708;DHT22;3896;48.758;8.888;2023-02-15T14:40:53;23.30;38.00
7708;DHT22;3896;48.758;8.888;2023-02-15T14:48:54;23.30;37.10
7708;DHT22;3896;48.758;8.888;2023-02-15T14:59:57;23.10;37.40
7708;DHT22;3896;48.758;8.888;2023-02-15T15:02:24;23.00;37.30
7708;DHT22;3896;48.758;8.888;2023-02-15T15:07:44;22.80;38.10
7708;DHT22;3896;48.758;8.888;2023-02-15T15:12:44;22.80;37.30
7708;DHT22;3896;48.758;8.888;2023-02-15T15:15:33;22.70;37.10
7708;DHT22;3896;48.758;8.888;2023-02-15T15:18:04;22.60;37.30
7708;DHT22;3896;48.758;8.888;2023-02-15T15:20:41;22.50;37.00
7708;DHT22;3896;48.758;8.888;2023-02-15T15:25:50;22.20;37.40
7708;DHT22;3896;48.758;8.888;2023-02-15T15:31:17;21.90;38.40
7708;DHT22;3896;48.758;8.888;2023-02-15T15:33:54;21.70;38.70
7708;DHT22;3896;48.758;8.888;2023-02-15T15:45:03;20.90;39.20
7708;DHT22;3896;48.758;8.888;2023-02-15T15:50:14;20.50;40.20
7708;DHT22;3896;48.758;8.888;2023-02-15T15:52:46;20.30;40.30
7708;DHT22;3896;48.758;8.888;2023-02-15T15:55:22;20.20;40.80
7708;DHT22;3896;48.758;8.888;2023-02-15T15:57:52;20.00;41.20
7708;DHT22;3896;48.758;8.888;2023-02-15T16:00:52;19.80;41.30
7708;DHT22;3896;48.758;8.888;2023-02-15T16:03:23;19.60;41.70
7708;DHT22;3896;48.758;8.888;2023-02-15T16:05:49;19.40;42.00
7708;DHT22;3896;48.758;8.888;2023-02-15T16:08:31;19.30;42.60
7708;DHT22;3896;48.758;8.888;2023-02-15T16:10:58;19.00;42.90
7708;DHT22;3896;48.758;8.888;2023-02-15T16:13:25;18.90;43.40
7708;DHT22;3896;48.758;8.888;2023-02-15T16:15:53;18.70;43.70
7708;DHT22;3896;48.758;8.888;2023-02-15T16:18:23;18.40;43.90
7708;DHT22;3896;48.758;8.888;2023-02-15T16:20:55;18.20;44.30
7708;DHT22;3896;48.758;8.888;2023-02-15T16:26:28;17.70;45.00
7708;DHT22;3896;48.758;8.888;2023-02-15T16:28:58;17.40;45.30
7708;DHT22;3896;48.758;8.888;2023-02-15T16:31:23;17.20;45.80
7708;DHT22;3896;48.758;8.888;2023-02-15T16:33:53;16.90;46.10
7708;DHT22;3896;48.758;8.888;2023-02-15T16:36:27;16.70;46.40
7708;DHT22;3896;48.758;8.888;2023-02-15T16:41:22;16.30;46.80
7708;DHT22;3896;48.758;8.888;2023-02-15T16:43:50;16.10;47.00
7708;DHT22;3896;48.758;8.888;2023-02-15T16:46:32;15.90;47.20
7708;DHT22;3896;48.758;8.888;2023-02-15T16:49:01;15.60;47.20
7708;DHT22;3896;48.758;8.888;2023-02-15T16:51:29;15.50;47.40
7708;DHT22;3896;48.758;8.888;2023-02-15T16:53:57;15.30;47.50
7708;DHT22;3896;48.758;8.888;2023-02-15T16:56:27;15.50;47.20
7708;DHT22;3896;48.758;8.888;2023-02-15T16:58:56;15.10;47.10
7708;DHT22;3896;48.758;8.888;2023-02-15T17:01:25;14.80;47.30
7708;DHT22;3896;48.758;8.888;2023-02-15T17:04:09;14.60;47.40
7708;DHT22;3896;48.758;8.888;2023-02-15T17:06:35;14.30;47.60
7708;DHT22;3896;48.758;8.888;2023-02-15T17:09:06;14.00;47.80
7708;DHT22;3896;48.758;8.888;2023-02-15T17:11:44;13.80;48.10
7708;DHT22;3896;48.758;8.888;2023-02-15T17:14:10;13.60;48.30
7708;DHT22;3896;48.758;8.888;2023-02-15T17:16:42;13.40;48.40
7708;DHT22;3896;48.758;8.888;2023-02-15T17:19:13;13.10;48.40
7708;DHT22;3896;48.758;8.888;2023-02-15T17:21:43;12.90;48.60
7708;DHT22;3896;48.758;8.888;2023-02-15T17:26:57;12.40;48.70
7708;DHT22;3896;48.758;8.888;2023-02-15T17:29:35;12.30;49.20
7708;DHT22;3896;48.758;8.888;2023-02-15T17:32:02;12.00;49.30
7708;DHT22;3896;48.758;8.888;2023-02-15T17:37:32;11.70;49.70
7708;DHT22;3896;48.758;8.888;2023-02-15T17:40:21;11.50;50.10
7708;DHT22;3896;48.758;8.888;2023-02-15T17:42:47;11.20;50.40
7708;DHT22;3896;48.758;8.888;2023-02-15T17:45:13;11.10;50.70
7708;DHT22;3896;48.758;8.888;2023-02-15T17:47:39;11.00;50.70
7708;DHT22;3896;48.758;8.888;2023-02-15T17:50:06;10.80;50.80
7708;DHT22;3896;48.758;8.888;2023-02-15T17:52:31;10.70;51.10
7708;DHT22;3896;48.758;8.888;2023-02-15T17:54:58;10.50;51.40
7708;DHT22;3896;48.758;8.888;2023-02-15T17:57:42;10.40;51.60
7708;DHT22;3896;48.758;8.888;2023-02-15T18:00:12;10.20;51.80
7708;DHT22;3896;48.758;8.888;2023-02-15T18:02:56;10.00;51.90
7708;DHT22;3896;48.758;8.888;2023-02-15T18:05:40;9.80;52.90
7708;DHT22;3896;48.758;8.888;2023-02-15T18:08:27;9.70;53.20
7708;DHT22;3896;48.758;8.888;2023-02-15T18:11:11;9.60;53.40
7708;DHT22;3896;48.758;8.888;2023-02-15T18:13:55;9.40;53.60
7708;DHT22;3896;48.758;8.888;2023-02-15T18:16:27;9.20;53.90
7708;DHT22;3896;48.758;8.888;2023-02-15T18:18:54;9.10;54.00
7708;DHT22;3896;48.758;8.888;2023-02-15T18:21:20;9.00;54.20
7708;DHT22;3896;48.758;8.888;2023-02-15T18:23:45;8.80;54.40
7708;DHT22;3896;48.758;8.888;2023-02-15T18:26:21;8.70;54.60
7708;DHT22;3896;48.758;8.888;2023-02-15T18:28:48;8.60;54.90
7708;DHT22;3896;48.758;8.888;2023-02-15T18:31:14;8.50;55.10
7708;DHT22;3896;48.758;8.888;2023-02-15T18:33:52;8.40;55.20
7708;DHT22;3896;48.758;8.888;2023-02-15T18:36:26;8.20;55.30
7708;DHT22;3896;48.758;8.888;2023-02-15T18:38:55;8.10;55.50
7708;DHT22;3896;48.758;8.888;2023-02-15T18:41:22;8.00;55.60
7708;DHT22;3896;48.758;8.888;2023-02-15T18:43:48;8.00;55.70
7708;DHT22;3896;48.758;8.888;2023-02-15T18:46:15;7.90;56.00
7708;DHT22;3896;48.758;8.888;2023-02-15T18:48:41;7.70;56.10
7708;DHT22;3896;48.758;8.888;2023-02-15T18:51:18;7.70;56.20
7708;DHT22;3896;48.758;8.888;2023-02-15T18:53:45;7.50;56.30
7708;DHT22;3896;48.758;8.888;2023-02-15T18:56:14;7.50;56.60
7708;DHT22;3896;48.758;8.888;2023-02-15T18:58:41;7.40;56.80
7708;DHT22;3896;48.758;8.888;2023-02-15T19:01:15;7.30;56.90
7708;DHT22;3896;48.758;8.888;2023-02-15T19:03:43;7.20;57.10
7708;DHT22;3896;48.758;8.888;2023-02-15T19:06:11;7.10;57.30
7708;DHT22;3896;48.758;8.888;2023-02-15T19:08:37;7.00;57.40
7708;DHT22;3896;48.758;8.888;2023-02-15T19:11:05;6.90;57.50
7708;DHT22;3896;48.758;8.888;2023-02-15T19:13:30;6.80;57.70